sensor_id;sensor_type;location;lat;lon;timestamp;P1;durP1;ratioP1;P2;durP2;ratioP2
78844;SDS011;68195;50.854;2.860;2023-04-03T00:00:05;9.55;;;5.88;;
78844;SDS011;68195;50.854;2.860;2023-04-03T00:02:31;8.48;;;5.45;;
78844;SDS011;68195;50.854;2.860;2023-04-03T00:04:57;9.88;;;6.30;;
78844;SDS011;68195;50.854;2.860;2023-04-03T00:07:25;8.40;;;5.82;;
78844;SDS011;68195;50.854;2.860;2023-04-03T00:09:53;8.82;;;5.50;;
78844;SDS011;68195;50.854;2.860;2023-04-03T00:12:18;12.65;;;6.70;;
78844;SDS011;68195;50.854;2.860;2023-04-03T00:14:44;11.02;;;6.55;;
78844;SDS011;68195;50.854;2.860;2023-04-03T00:17:09;10.15;;;5.88;;
78844;SDS011;68195;50.854;2.860;2023-04-03T00:19:35;12.15;;;6.20;;
78844;SDS011;68195;50.854;2.860;2023-04-03T00:22:00;7.45;;;5.00;;
78844;SDS011;68195;50.854;2.860;2023-04-03T00:24:26;7.07;;;4.68;;
78844;SDS011;68195;50.854;2.860;2023-04-03T00:26:51;11.30;;;5.32;;
78844;SDS011;68195;50.854;2.860;2023-04-03T00:29:16;9.35;;;5.22;;
78844;SDS011;68195;50.854;2.860;2023-04-03T00:31:42;9.50;;;4.82;;
78844;SDS011;68195;50.854;2.860;2023-04-03T00:34:07;5.80;;;4.50;;
78844;SDS011;68195;50.854;2.860;2023-04-03T00:36:33;6.93;;;4.93;;
78844;SDS011;68195;50.854;2.860;2023-04-03T00:38:58;9.27;;;5.75;;
78844;SDS011;68195;50.854;2.860;2023-04-03T00:41:23;6.90;;;5.22;;
78844;SDS011;68195;50.854;2.860;2023-04-03T00:43:51;7.20;;;5.13;;
78844;SDS011;68195;50.854;2.860;2023-04-03T00:46:17;8.93;;;5.00;;
78844;SDS011;68195;50.854;2.860;2023-04-03T00:48:46;7.65;;;4.88;;
78844;SDS011;68195;50.854;2.860;2023-04-03T00:51:25;7.40;;;4.85;;
78844;SDS011;68195;50.854;2.860;2023-04-03T00:56:29;8.48;;;4.68;;
78844;SDS011;68195;50.854;2.860;2023-04-03T00:58:59;7.68;;;4.47;;
78844;SDS011;68195;50.854;2.860;2023-04-03T01:01:29;5.60;;;4.20;;
78844;SDS011;68195;50.854;2.860;2023-04-03T01:06:21;7.10;;;4.32;;
78844;SDS011;68195;50.854;2.860;2023-04-03T01:08:51;5.63;;;4.15;;
78844;SDS011;68195;50.854;2.860;2023-04-03T01:11:17;7.05;;;4.45;;
78844;SDS011;68195;50.854;2.860;2023-04-03T01:13:42;7.38;;;4.45;;
78844;SDS011;68195;50.854;2.860;2023-04-03T01:16:10;9.48;;;4.82;;
78844;SDS011;68195;50.854;2.860;2023-04-03T01:18:41;9.48;;;4.93;;
78844;SDS011;68195;50.854;2.860;2023-04-03T01:26:50;5.88;;;4.25;;
78844;SDS011;68195;50.854;2.860;2023-04-03T01:29:16;6.45;;;4.43;;
78844;SDS011;68195;50.854;2.860;2023-04-03T01:31:55;7.28;;;4.90;;
78844;SDS011;68195;50.854;2.860;2023-04-03T01:34:22;8.30;;;3.92;;
78844;SDS011;68195;50.854;2.860;2023-04-03T01:36:48;8.00;;;5.10;;
78844;SDS011;68195;50.854;2.860;2023-04-03T01:39:17;7.13;;;5.38;;
78844;SDS011;68195;50.854;2.860;2023-04-03T01:41:43;6.05;;;4.32;;
78844;SDS011;68195;50.854;2.860;2023-04-03T01:44:09;7.95;;;5.25;;
78844;SDS011;68195;50.854;2.860;2023-04-03T01:46:37;10.63;;;4.97;;
78844;SDS011;68195;50.854;2.860;2023-04-03T01:49:03;6.97;;;4.38;;
78844;SDS011;68195;50.854;2.860;2023-04-03T01:53:55;6.82;;;3.97;;
78844;SDS011;68195;50.854;2.860;2023-04-03T01:56:20;10.27;;;4.70;;
78844;SDS011;68195;50.854;2.860;2023-04-03T01:58:48;8.75;;;4.75;;
78844;SDS011;68195;50.854;2.860;2023-04-03T02:01:13;6.60;;;4.75;;
78844;SDS011;68195;50.854;2.860;2023-04-03T02:03:40;9.18;;;5.25;;
78844;SDS011;68195;50.854;2.860;2023-04-03T02:06:05;7.13;;;5.13;;
78844;SDS011;68195;50.854;2.860;2023-04-03T02:08:31;7.10;;;4.68;;
78844;SDS011;68195;50.854;2.860;2023-04-03T02:11:01;8.70;;;4.50;;
78844;SDS011;68195;50.854;2.860;2023-04-03T02:13:26;8.50;;;5.15;;
78844;SDS011;68195;50.854;2.860;2023-04-03T02:15:54;7.60;;;4.47;;
78844;SDS011;68195;50.854;2.860;2023-04-03T02:18:22;7.38;;;4.70;;
78844;SDS011;68195;50.854;2.860;2023-04-03T02:20:47;8.35;;;5.03;;
78844;SDS011;68195;50.854;2.860;2023-04-03T02:23:13;7.97;;;5.95;;
78844;SDS011;68195;50.854;2.860;2023-04-03T02:25:38;8.18;;;4.93;;
78844;SDS011;68195;50.854;2.860;2023-04-03T02:28:03;8.35;;;4.82;;
78844;SDS011;68195;50.854;2.860;2023-04-03T02:30:31;7.45;;;4.72;;
78844;SDS011;68195;50.854;2.860;2023-04-03T02:32:59;10.63;;;5.25;;
78844;SDS011;68195;50.854;2.860;2023-04-03T02:35:25;7.60;;;4.90;;
78844;SDS011;68195;50.854;2.860;2023-04-03T02:37:50;7.57;;;5.28;;
78844;SDS011;68195;50.854;2.860;2023-04-03T02:40:16;6.75;;;4.45;;
78844;SDS011;68195;50.854;2.860;2023-04-03T02:42:41;8.07;;;4.80;;
78844;SDS011;68195;50.854;2.860;2023-04-03T02:45:07;8.18;;;5.07;;
78844;SDS011;68195;50.854;2.860;2023-04-03T02:47:34;8.70;;;4.50;;
78844;SDS011;68195;50.854;2.860;2023-04-03T02:50:02;8.50;;;5.00;;
78844;SDS011;68195;50.854;2.860;2023-04-03T02:52:28;8.55;;;5.72;;
78844;SDS011;68195;50.854;2.860;2023-04-03T02:54:58;7.75;;;5.22;;
78844;SDS011;68195;50.854;2.860;2023-04-03T02:57:23;8.93;;;5.68;;
78844;SDS011;68195;50.854;2.860;2023-04-03T02:59:53;9.10;;;5.80;;
78844;SDS011;68195;50.854;2.860;2023-04-03T03:02:19;10.18;;;6.32;;
78844;SDS011;68195;50.854;2.860;2023-04-03T03:04:44;7.43;;;5.55;;
78844;SDS011;68195;50.854;2.860;2023-04-03T03:07:10;10.63;;;6.45;;
78844;SDS011;68195;50.854;2.860;2023-04-03T03:09:35;9.70;;;6.93;;
78844;SDS011;68195;50.854;2.860;2023-04-03T03:12:03;13.70;;;7.35;;
78844;SDS011;68195;50.854;2.860;2023-04-03T03:14:28;10.98;;;8.13;;
78844;SDS011;68195;50.854;2.860;2023-04-03T03:16:54;13.00;;;7.22;;
78844;SDS011;68195;50.854;2.860;2023-04-03T03:19:19;12.75;;;7.95;;
78844;SDS011;68195;50.854;2.860;2023-04-03T03:21:47;12.80;;;8.13;;
78844;SDS011;68195;50.854;2.860;2023-04-03T03:24:13;10.73;;;7.40;;
78844;SDS011;68195;50.854;2.860;2023-04-03T03:26:38;14.20;;;8.23;;
78844;SDS011;68195;50.854;2.860;2023-04-03T03:29:06;11.70;;;7.82;;
78844;SDS011;68195;50.854;2.860;2023-04-03T03:31:31;11.45;;;7.60;;
78844;SDS011;68195;50.854;2.860;2023-04-03T03:33:59;13.00;;;8.43;;
78844;SDS011;68195;50.854;2.860;2023-04-03T03:36:24;12.65;;;7.95;;
78844;SDS011;68195;50.854;2.860;2023-04-03T03:38:50;10.55;;;7.47;;
78844;SDS011;68195;50.854;2.860;2023-04-03T03:41:15;13.00;;;7.72;;
78844;SDS011;68195;50.854;2.860;2023-04-03T03:43:41;15.85;;;8.30;;
78844;SDS011;68195;50.854;2.860;2023-04-03T03:46:09;11.20;;;7.47;;
78844;SDS011;68195;50.854;2.860;2023-04-03T03:48:37;14.73;;;8.32;;
78844;SDS011;68195;50.854;2.860;2023-04-03T03:51:02;13.18;;;8.45;;
78844;SDS011;68195;50.854;2.860;2023-04-03T03:53:28;13.98;;;8.23;;
78844;SDS011;68195;50.854;2.860;2023-04-03T03:55:55;12.57;;;8.15;;
78844;SDS011;68195;50.854;2.860;2023-04-03T03:58:20;16.65;;;7.72;;
78844;SDS011;68195;50.854;2.860;2023-04-03T04:00:46;16.05;;;8.57;;
78844;SDS011;68195;50.854;2.860;2023-04-03T04:03:12;13.57;;;9.13;;
78844;SDS011;68195;50.854;2.860;2023-04-03T04:05:37;15.57;;;9.98;;
78844;SDS011;68195;50.854;2.860;2023-04-03T04:08:05;16.23;;;8.85;;
78844;SDS011;68195;50.854;2.860;2023-04-03T04:10:30;14.18;;;8.82;;
78844;SDS011;68195;50.854;2.860;2023-04-03T04:12:58;14.15;;;8.50;;
78844;SDS011;68195;50.854;2.860;2023-04-03T04:15:23;13.52;;;8.60;;
78844;SDS011;68195;50.854;2.860;2023-04-03T04:17:50;12.73;;;8.20;;
78844;SDS011;68195;50.854;2.860;2023-04-03T04:20:16;14.93;;;8.52;;
78844;SDS011;68195;50.854;2.860;2023-04-03T04:22:41;12.38;;;8.27;;
78844;SDS011;68195;50.854;2.860;2023-04-03T04:25:07;14.82;;;8.40;;
78844;SDS011;68195;50.854;2.860;2023-04-03T04:27:32;13.45;;;9.00;;
78844;SDS011;68195;50.854;2.860;2023-04-03T04:29:58;16.52;;;8.13;;
78844;SDS011;68195;50.854;2.860;2023-04-03T04:32:23;15.88;;;9.02;;
78844;SDS011;68195;50.854;2.860;2023-04-03T04:34:51;12.45;;;7.70;;
78844;SDS011;68195;50.854;2.860;2023-04-03T04:37:22;13.68;;;8.52;;
78844;SDS011;68195;50.854;2.860;2023-04-03T04:39:47;11.52;;;7.95;;
78844;SDS011;68195;50.854;2.860;2023-04-03T04:42:15;13.70;;;8.25;;
78844;SDS011;68195;50.854;2.860;2023-04-03T04:44:40;13.18;;;8.05;;
78844;SDS011;68195;50.854;2.860;2023-04-03T04:47:06;12.38;;;8.30;;
78844;SDS011;68195;50.854;2.860;2023-04-03T04:49:31;11.73;;;8.90;;
78844;SDS011;68195;50.854;2.860;2023-04-03T04:51:57;11.32;;;7.88;;
78844;SDS011;68195;50.854;2.860;2023-04-03T04:54:22;12.40;;;7.38;;
78844;SDS011;68195;50.854;2.860;2023-04-03T04:56:47;11.55;;;8.20;;
78844;SDS011;68195;50.854;2.860;2023-04-03T04:59:15;13.00;;;8.73;;
78844;SDS011;68195;50.854;2.860;2023-04-03T05:01:41;14.05;;;7.88;;
78844;SDS011;68195;50.854;2.860;2023-04-03T05:04:06;12.68;;;7.78;;
78844;SDS011;68195;50.854;2.860;2023-04-03T05:06:34;10.60;;;7.82;;
78844;SDS011;68195;50.854;2.860;2023-04-03T05:09:02;12.48;;;9.23;;
78844;SDS011;68195;50.854;2.860;2023-04-03T05:11:30;10.65;;;7.45;;
78844;SDS011;68195;50.854;2.860;2023-04-03T05:13:56;11.48;;;8.02;;
78844;SDS011;68195;50.854;2.860;2023-04-03T05:16:21;12.15;;;7.53;;
78844;SDS011;68195;50.854;2.860;2023-04-03T05:18:49;10.32;;;7.63;;
78844;SDS011;68195;50.854;2.860;2023-04-03T05:21:17;11.57;;;8.02;;
78844;SDS011;68195;50.854;2.860;2023-04-03T05:23:43;10.32;;;6.47;;
78844;SDS011;68195;50.854;2.860;2023-04-03T05:26:11;11.55;;;8.18;;
78844;SDS011;68195;50.854;2.860;2023-04-03T05:28:36;11.05;;;7.80;;
78844;SDS011;68195;50.854;2.860;2023-04-03T05:31:02;12.45;;;7.78;;
78844;SDS011;68195;50.854;2.860;2023-04-03T05:33:27;10.73;;;7.55;;
78844;SDS011;68195;50.854;2.860;2023-04-03T05:35:53;12.02;;;8.02;;
78844;SDS011;68195;50.854;2.860;2023-04-03T05:40:45;12.48;;;7.20;;
78844;SDS011;68195;50.854;2.860;2023-04-03T05:43:12;12.18;;;7.18;;
78844;SDS011;68195;50.854;2.860;2023-04-03T05:45:40;12.10;;;7.30;;
78844;SDS011;68195;50.854;2.860;2023-04-03T05:48:05;11.55;;;7.13;;
78844;SDS011;68195;50.854;2.860;2023-04-03T05:50:36;9.93;;;6.55;;
78844;SDS011;68195;50.854;2.860;2023-04-03T05:53:09;11.80;;;6.78;;
78844;SDS011;68195;50.854;2.860;2023-04-03T05:55:42;11.40;;;7.03;;
78844;SDS011;68195;50.854;2.860;2023-04-03T05:58:07;10.52;;;6.88;;
78844;SDS011;68195;50.854;2.860;2023-04-03T06:00:38;10.82;;;7.50;;
78844;SDS011;68195;50.854;2.860;2023-04-03T06:03:03;12.45;;;7.00;;
78844;SDS011;68195;50.854;2.860;2023-04-03T06:05:30;11.70;;;7.47;;
78844;SDS011;68195;50.854;2.860;2023-04-03T06:07:55;9.88;;;6.70;;
78844;SDS011;68195;50.854;2.860;2023-04-03T06:10:22;11.02;;;6.65;;
78844;SDS011;68195;50.854;2.860;2023-04-03T06:12:47;9.95;;;5.65;;
78844;SDS011;68195;50.854;2.860;2023-04-03T06:15:13;10.30;;;6.35;;
78844;SDS011;68195;50.854;2.860;2023-04-03T06:17:41;8.88;;;6.18;;
78844;SDS011;68195;50.854;2.860;2023-04-03T06:20:06;10.27;;;6.65;;
78844;SDS011;68195;50.854;2.860;2023-04-03T06:22:32;10.32;;;5.80;;
78844;SDS011;68195;50.854;2.860;2023-04-03T06:25:00;13.00;;;6.28;;
78844;SDS011;68195;50.854;2.860;2023-04-03T06:27:26;9.38;;;6.55;;
78844;SDS011;68195;50.854;2.860;2023-04-03T06:29:52;9.35;;;6.05;;
78844;SDS011;68195;50.854;2.860;2023-04-03T06:32:19;8.70;;;5.55;;
78844;SDS011;68195;50.854;2.860;2023-04-03T06:34:45;9.90;;;6.35;;
78844;SDS011;68195;50.854;2.860;2023-04-03T06:37:17;11.10;;;5.97;;
78844;SDS011;68195;50.854;2.860;2023-04-03T06:39:45;9.40;;;5.90;;
78844;SDS011;68195;50.854;2.860;2023-04-03T06:42:10;8.38;;;5.80;;
78844;SDS011;68195;50.854;2.860;2023-04-03T06:44:36;8.70;;;5.40;;
78844;SDS011;68195;50.854;2.860;2023-04-03T06:47:02;10.00;;;5.28;;
78844;SDS011;68195;50.854;2.860;2023-04-03T06:49:30;8.93;;;5.55;;
78844;SDS011;68195;50.854;2.860;2023-04-03T06:51:56;7.13;;;5.00;;
78844;SDS011;68195;50.854;2.860;2023-04-03T06:54:24;8.38;;;5.00;;
78844;SDS011;68195;50.854;2.860;2023-04-03T06:56:50;8.85;;;5.80;;
78844;SDS011;68195;50.854;2.860;2023-04-03T06:59:16;8.52;;;5.95;;
78844;SDS011;68195;50.854;2.860;2023-04-03T07:01:42;8.77;;;5.20;;
78844;SDS011;68195;50.854;2.860;2023-04-03T07:04:10;8.63;;;4.80;;
78844;SDS011;68195;50.854;2.860;2023-04-03T07:06:37;10.13;;;5.35;;
78844;SDS011;68195;50.854;2.860;2023-04-03T07:09:06;9.25;;;5.43;;
78844;SDS011;68195;50.854;2.860;2023-04-03T07:11:32;7.07;;;5.28;;
78844;SDS011;68195;50.854;2.860;2023-04-03T07:13:58;6.82;;;4.68;;
78844;SDS011;68195;50.854;2.860;2023-04-03T07:16:23;10.63;;;5.22;;
78844;SDS011;68195;50.854;2.860;2023-04-03T07:18:49;7.55;;;4.80;;
78844;SDS011;68195;50.854;2.860;2023-04-03T07:21:14;8.23;;;5.45;;
78844;SDS011;68195;50.854;2.860;2023-04-03T07:23:39;6.38;;;4.45;;
78844;SDS011;68195;50.854;2.860;2023-04-03T07:26:07;5.28;;;4.68;;
78844;SDS011;68195;50.854;2.860;2023-04-03T07:28:33;6.63;;;5.03;;
78844;SDS011;68195;50.854;2.860;2023-04-03T07:31:03;7.72;;;4.85;;
78844;SDS011;68195;50.854;2.860;2023-04-03T07:33:31;6.43;;;4.53;;
78844;SDS011;68195;50.854;2.860;2023-04-03T07:35:57;5.95;;;4.18;;
78844;SDS011;68195;50.854;2.860;2023-04-03T07:38:23;7.40;;;4.78;;
78844;SDS011;68195;50.854;2.860;2023-04-03T07:40:51;6.85;;;4.90;;
78844;SDS011;68195;50.854;2.860;2023-04-03T07:43:18;7.22;;;3.97;;
78844;SDS011;68195;50.854;2.860;2023-04-03T07:45:45;6.43;;;4.05;;
78844;SDS011;68195;50.854;2.860;2023-04-03T07:48:14;6.90;;;3.90;;
78844;SDS011;68195;50.854;2.860;2023-04-03T07:50:40;6.30;;;3.80;;
78844;SDS011;68195;50.854;2.860;2023-04-03T07:53:06;5.63;;;4.03;;
78844;SDS011;68195;50.854;2.860;2023-04-03T07:55:35;8.52;;;3.88;;
78844;SDS011;68195;50.854;2.860;2023-04-03T07:58:08;5.90;;;3.80;;
78844;SDS011;68195;50.854;2.860;2023-04-03T08:00:34;5.80;;;3.95;;
78844;SDS011;68195;50.854;2.860;2023-04-03T08:03:00;6.57;;;3.90;;
78844;SDS011;68195;50.854;2.860;2023-04-03T08:05:26;5.00;;;3.45;;
78844;SDS011;68195;50.854;2.860;2023-04-03T08:07:54;4.55;;;3.60;;
78844;SDS011;68195;50.854;2.860;2023-04-03T08:10:19;5.75;;;3.90;;
78844;SDS011;68195;50.854;2.860;2023-04-03T08:12:46;7.32;;;3.45;;
78844;SDS011;68195;50.854;2.860;2023-04-03T08:15:12;5.22;;;3.40;;
78844;SDS011;68195;50.854;2.860;2023-04-03T08:17:39;4.93;;;2.90;;
78844;SDS011;68195;50.854;2.860;2023-04-03T08:20:05;5.38;;;3.08;;
78844;SDS011;68195;50.854;2.860;2023-04-03T08:22:35;5.20;;;3.50;;
78844;SDS011;68195;50.854;2.860;2023-04-03T08:25:00;6.32;;;3.03;;
78844;SDS011;68195;50.854;2.860;2023-04-03T08:27:26;4.47;;;2.88;;
78844;SDS011;68195;50.854;2.860;2023-04-03T08:29:53;3.63;;;2.60;;
78844;SDS011;68195;50.854;2.860;2023-04-03T08:34:45;3.60;;;2.70;;
78844;SDS011;68195;50.854;2.860;2023-04-03T08:37:13;3.45;;;2.50;;
78844;SDS011;68195;50.854;2.860;2023-04-03T08:39:41;6.50;;;2.58;;
78844;SDS011;68195;50.854;2.860;2023-04-03T08:42:52;4.72;;;3.00;;
78844;SDS011;68195;50.854;2.860;2023-04-03T08:48:06;5.95;;;2.90;;
78844;SDS011;68195;50.854;2.860;2023-04-03T08:50:41;3.08;;;2.35;;
78844;SDS011;68195;50.854;2.860;2023-04-03T08:53:17;6.05;;;3.22;;
78844;SDS011;68195;50.854;2.860;2023-04-03T08:55:49;3.92;;;2.67;;
78844;SDS011;68195;50.854;2.860;2023-04-03T09:03:43;5.18;;;3.75;;
78844;SDS011;68195;50.854;2.860;2023-04-03T09:06:15;5.50;;;3.90;;
78844;SDS011;68195;50.854;2.860;2023-04-03T09:08:45;6.45;;;4.05;;
78844;SDS011;68195;50.854;2.860;2023-04-03T09:11:16;4.97;;;3.92;;
78844;SDS011;68195;50.854;2.860;2023-04-03T09:13:51;8.10;;;4.65;;
78844;SDS011;68195;50.854;2.860;2023-04-03T09:16:28;6.32;;;4.05;;
78844;SDS011;68195;50.854;2.860;2023-04-03T09:19:36;5.88;;;4.10;;
78844;SDS011;68195;50.854;2.860;2023-04-03T09:27:45;6.10;;;4.10;;
78844;SDS011;68195;50.854;2.860;2023-04-03T09:30:14;5.80;;;4.15;;
78844;SDS011;68195;50.854;2.860;2023-04-03T09:32:45;7.10;;;4.55;;
78844;SDS011;68195;50.854;2.860;2023-04-03T09:37:52;8.40;;;5.10;;
78844;SDS011;68195;50.854;2.860;2023-04-03T09:42:50;5.75;;;4.18;;
78844;SDS011;68195;50.854;2.860;2023-04-03T09:45:24;4.55;;;3.05;;
78844;SDS011;68195;50.854;2.860;2023-04-03T09:48:06;6.28;;;3.83;;
78844;SDS011;68195;50.854;2.860;2023-04-03T09:50:36;5.20;;;3.50;;
78844;SDS011;68195;50.854;2.860;2023-04-03T09:53:05;6.40;;;4.78;;
78844;SDS011;68195;50.854;2.860;2023-04-03T09:55:32;7.55;;;4.78;;
78844;SDS011;68195;50.854;2.860;2023-04-03T09:58:20;5.20;;;3.42;;
78844;SDS011;68195;50.854;2.860;2023-04-03T10:01:01;6.75;;;4.60;;
78844;SDS011;68195;50.854;2.860;2023-04-03T10:03:29;8.00;;;4.60;;
78844;SDS011;68195;50.854;2.860;2023-04-03T10:06:00;6.43;;;3.42;;
78844;SDS011;68195;50.854;2.860;2023-04-03T10:08:32;7.28;;;3.63;;
78844;SDS011;68195;50.854;2.860;2023-04-03T10:13:32;6.72;;;4.43;;
78844;SDS011;68195;50.854;2.860;2023-04-03T10:16:03;7.68;;;4.70;;
78844;SDS011;68195;50.854;2.860;2023-04-03T10:18:37;6.93;;;4.22;;
78844;SDS011;68195;50.854;2.860;2023-04-03T10:21:23;10.60;;;4.70;;
78844;SDS011;68195;50.854;2.860;2023-04-03T10:23:55;7.43;;;4.75;;
78844;SDS011;68195;50.854;2.860;2023-04-03T10:26:49;5.40;;;4.35;;
78844;SDS011;68195;50.854;2.860;2023-04-03T10:35:16;6.35;;;4.18;;
78844;SDS011;68195;50.854;2.860;2023-04-03T10:40:59;5.70;;;4.15;;
78844;SDS011;68195;50.854;2.860;2023-04-03T10:57:05;7.32;;;5.00;;
78844;SDS011;68195;50.854;2.860;2023-04-03T10:59:47;6.53;;;4.65;;
78844;SDS011;68195;50.854;2.860;2023-04-03T11:02:25;6.63;;;4.03;;
78844;SDS011;68195;50.854;2.860;2023-04-03T11:05:00;6.97;;;4.13;;
78844;SDS011;68195;50.854;2.860;2023-04-03T11:07:37;7.75;;;3.85;;
78844;SDS011;68195;50.854;2.860;2023-04-03T11:10:29;6.10;;;3.53;;
78844;SDS011;68195;50.854;2.860;2023-04-03T11:13:13;4.72;;;3.65;;
78844;SDS011;68195;50.854;2.860;2023-04-03T11:15:48;4.70;;;3.22;;
78844;SDS011;68195;50.854;2.860;2023-04-03T11:18:26;4.07;;;2.75;;
78844;SDS011;68195;50.854;2.860;2023-04-03T11:21:08;4.32;;;2.83;;
78844;SDS011;68195;50.854;2.860;2023-04-03T11:23:40;5.45;;;2.63;;
78844;SDS011;68195;50.854;2.860;2023-04-03T11:26:19;4.20;;;2.67;;
78844;SDS011;68195;50.854;2.860;2023-04-03T11:28:51;4.70;;;3.47;;
78844;SDS011;68195;50.854;2.860;2023-04-03T11:34:24;3.88;;;2.58;;
78844;SDS011;68195;50.854;2.860;2023-04-03T11:36:57;3.72;;;2.83;;
78844;SDS011;68195;50.854;2.860;2023-04-03T11:39:28;5.25;;;2.67;;
78844;SDS011;68195;50.854;2.860;2023-04-03T11:42:16;5.32;;;2.83;;
78844;SDS011;68195;50.854;2.860;2023-04-03T11:44:51;4.40;;;2.60;;
78844;SDS011;68195;50.854;2.860;2023-04-03T11:48:01;3.58;;;2.67;;
78844;SDS011;68195;50.854;2.860;2023-04-03T12:16:25;3.92;;;2.53;;
78844;SDS011;68195;50.854;2.860;2023-04-03T12:23:58;6.68;;;2.33;;
78844;SDS011;68195;50.854;2.860;2023-04-03T12:27:09;5.10;;;2.42;;
78844;SDS011;68195;50.854;2.860;2023-04-03T12:46:42;4.00;;;2.70;;
78844;SDS011;68195;50.854;2.860;2023-04-03T12:51:45;2.28;;;1.92;;
78844;SDS011;68195;50.854;2.860;2023-04-03T12:54:16;5.00;;;2.00;;
78844;SDS011;68195;50.854;2.860;2023-04-03T12:56:43;3.60;;;1.92;;
78844;SDS011;68195;50.854;2.860;2023-04-03T12:59:23;3.05;;;1.65;;
78844;SDS011;68195;50.854;2.860;2023-04-03T13:01:55;2.55;;;1.63;;
78844;SDS011;68195;50.854;2.860;2023-04-03T13:04:26;2.88;;;2.00;;
78844;SDS011;68195;50.854;2.860;2023-04-03T13:06:55;2.97;;;1.90;;
78844;SDS011;68195;50.854;2.860;2023-04-03T13:09:27;4.82;;;2.35;;
78844;SDS011;68195;50.854;2.860;2023-04-03T13:14:40;4.30;;;1.92;;
78844;SDS011;68195;50.854;2.860;2023-04-03T13:19:41;5.63;;;1.70;;
78844;SDS011;68195;50.854;2.860;2023-04-03T13:22:13;2.83;;;1.65;;
78844;SDS011;68195;50.854;2.860;2023-04-03T13:24:44;5.78;;;2.10;;
78844;SDS011;68195;50.854;2.860;2023-04-03T13:27:12;5.82;;;1.88;;
78844;SDS011;68195;50.854;2.860;2023-04-03T13:29:38;3.80;;;1.98;;
78844;SDS011;68195;50.854;2.860;2023-04-03T13:32:05;2.75;;;1.80;;
78844;SDS011;68195;50.854;2.860;2023-04-03T13:34:38;2.75;;;1.42;;
78844;SDS011;68195;50.854;2.860;2023-04-03T13:37:19;3.55;;;1.55;;
78844;SDS011;68195;50.854;2.860;2023-04-03T13:39:56;2.97;;;1.88;;
78844;SDS011;68195;50.854;2.860;2023-04-03T13:42:25;4.15;;;1.98;;
78844;SDS011;68195;50.854;2.860;2023-04-03T13:47:49;3.28;;;1.40;;
78844;SDS011;68195;50.854;2.860;2023-04-03T13:50:24;3.00;;;1.98;;
78844;SDS011;68195;50.854;2.860;2023-04-03T13:52:54;3.20;;;2.10;;
78844;SDS011;68195;50.854;2.860;2023-04-03T13:55:33;4.30;;;1.52;;
78844;SDS011;68195;50.854;2.860;2023-04-03T13:58:25;2.35;;;1.42;;
78844;SDS011;68195;50.854;2.860;2023-04-03T14:00:56;3.00;;;1.60;;
78844;SDS011;68195;50.854;2.860;2023-04-03T14:03:29;4.53;;;1.77;;
78844;SDS011;68195;50.854;2.860;2023-04-03T14:05:58;3.15;;;1.70;;
78844;SDS011;68195;50.854;2.860;2023-04-03T14:08:26;4.25;;;1.75;;
78844;SDS011;68195;50.854;2.860;2023-04-03T14:10:52;2.75;;;1.42;;
78844;SDS011;68195;50.854;2.860;2023-04-03T14:13:19;2.50;;;1.30;;
78844;SDS011;68195;50.854;2.860;2023-04-03T14:15:47;3.30;;;1.80;;
78844;SDS011;68195;50.854;2.860;2023-04-03T14:18:14;2.90;;;1.70;;
78844;SDS011;68195;50.854;2.860;2023-04-03T14:20:41;2.50;;;1.55;;
78844;SDS011;68195;50.854;2.860;2023-04-03T14:23:07;3.20;;;1.55;;
78844;SDS011;68195;50.854;2.860;2023-04-03T14:25:35;3.50;;;1.60;;
78844;SDS011;68195;50.854;2.860;2023-04-03T14:28:01;4.55;;;2.17;;
78844;SDS011;68195;50.854;2.860;2023-04-03T14:30:28;2.35;;;1.52;;
78844;SDS011;68195;50.854;2.860;2023-04-03T14:32:56;3.33;;;1.98;;
78844;SDS011;68195;50.854;2.860;2023-04-03T14:35:22;4.20;;;1.70;;
78844;SDS011;68195;50.854;2.860;2023-04-03T14:37:50;2.97;;;2.00;;
78844;SDS011;68195;50.854;2.860;2023-04-03T14:40:23;5.65;;;2.10;;
78844;SDS011;68195;50.854;2.860;2023-04-03T14:42:52;4.53;;;2.25;;
78844;SDS011;68195;50.854;2.860;2023-04-03T14:45:20;4.57;;;2.45;;
78844;SDS011;68195;50.854;2.860;2023-04-03T14:47:51;2.30;;;1.58;;
78844;SDS011;68195;50.854;2.860;2023-04-03T14:50:19;3.55;;;2.00;;
78844;SDS011;68195;50.854;2.860;2023-04-03T14:52:46;4.10;;;1.92;;
78844;SDS011;68195;50.854;2.860;2023-04-03T14:55:14;2.88;;;2.13;;
78844;SDS011;68195;50.854;2.860;2023-04-03T14:57:41;3.72;;;1.95;;
78844;SDS011;68195;50.854;2.860;2023-04-03T15:00:17;3.60;;;1.70;;
78844;SDS011;68195;50.854;2.860;2023-04-03T15:02:49;5.20;;;1.95;;
78844;SDS011;68195;50.854;2.860;2023-04-03T15:05:14;4.90;;;1.90;;
78844;SDS011;68195;50.854;2.860;2023-04-03T15:07:48;3.35;;;2.00;;
78844;SDS011;68195;50.854;2.860;2023-04-03T15:10:24;2.80;;;1.40;;
78844;SDS011;68195;50.854;2.860;2023-04-03T15:12:54;3.90;;;2.17;;
78844;SDS011;68195;50.854;2.860;2023-04-03T15:15:23;4.40;;;2.63;;
78844;SDS011;68195;50.854;2.860;2023-04-03T15:17:51;4.43;;;2.35;;
78844;SDS011;68195;50.854;2.860;2023-04-03T15:20:23;6.55;;;2.20;;
78844;SDS011;68195;50.854;2.860;2023-04-03T15:22:55;2.35;;;1.75;;
78844;SDS011;68195;50.854;2.860;2023-04-03T15:25:21;4.35;;;2.00;;
78844;SDS011;68195;50.854;2.860;2023-04-03T15:27:47;3.67;;;2.20;;
78844;SDS011;68195;50.854;2.860;2023-04-03T15:30:14;3.70;;;1.80;;
78844;SDS011;68195;50.854;2.860;2023-04-03T15:32:41;4.07;;;2.03;;
78844;SDS011;68195;50.854;2.860;2023-04-03T15:35:07;3.72;;;1.98;;
78844;SDS011;68195;50.854;2.860;2023-04-03T15:37:32;2.88;;;1.85;;
78844;SDS011;68195;50.854;2.860;2023-04-03T15:39:58;3.88;;;2.45;;
78844;SDS011;68195;50.854;2.860;2023-04-03T15:42:25;3.08;;;1.88;;
78844;SDS011;68195;50.854;2.860;2023-04-03T15:44:53;3.45;;;1.83;;
78844;SDS011;68195;50.854;2.860;2023-04-03T15:47:19;2.63;;;1.85;;
78844;SDS011;68195;50.854;2.860;2023-04-03T15:49:44;4.65;;;1.88;;
78844;SDS011;68195;50.854;2.860;2023-04-03T15:52:14;4.53;;;2.13;;
78844;SDS011;68195;50.854;2.860;2023-04-03T15:54:42;2.63;;;1.63;;
78844;SDS011;68195;50.854;2.860;2023-04-03T15:57:12;3.70;;;1.70;;
78844;SDS011;68195;50.854;2.860;2023-04-03T15:59:38;3.47;;;1.73;;
78844;SDS011;68195;50.854;2.860;2023-04-03T16:02:04;2.35;;;1.52;;
78844;SDS011;68195;50.854;2.860;2023-04-03T16:04:33;2.35;;;1.73;;
78844;SDS011;68195;50.854;2.860;2023-04-03T16:07:02;3.35;;;1.80;;
78844;SDS011;68195;50.854;2.860;2023-04-03T16:09:29;6.13;;;1.88;;
78844;SDS011;68195;50.854;2.860;2023-04-03T16:12:00;3.65;;;1.92;;
78844;SDS011;68195;50.854;2.860;2023-04-03T16:14:25;2.67;;;1.75;;
78844;SDS011;68195;50.854;2.860;2023-04-03T16:16:55;3.17;;;2.00;;
78844;SDS011;68195;50.854;2.860;2023-04-03T16:19:21;3.20;;;1.60;;
78844;SDS011;68195;50.854;2.860;2023-04-03T16:21:49;2.60;;;1.70;;
78844;SDS011;68195;50.854;2.860;2023-04-03T16:24:17;2.15;;;1.20;;
78844;SDS011;68195;50.854;2.860;2023-04-03T16:26:43;4.78;;;2.38;;
78844;SDS011;68195;50.854;2.860;2023-04-03T16:29:08;2.47;;;1.40;;
78844;SDS011;68195;50.854;2.860;2023-04-03T16:31:33;4.68;;;2.40;;
78844;SDS011;68195;50.854;2.860;2023-04-03T16:33:59;4.10;;;2.45;;
78844;SDS011;68195;50.854;2.860;2023-04-03T16:36:26;2.45;;;1.70;;
78844;SDS011;68195;50.854;2.860;2023-04-03T16:38:54;5.25;;;1.98;;
78844;SDS011;68195;50.854;2.860;2023-04-03T16:41:19;2.70;;;1.60;;
78844;SDS011;68195;50.854;2.860;2023-04-03T16:43:45;2.80;;;1.60;;
78844;SDS011;68195;50.854;2.860;2023-04-03T16:46:10;4.10;;;1.55;;
78844;SDS011;68195;50.854;2.860;2023-04-03T16:48:36;3.00;;;1.95;;
78844;SDS011;68195;50.854;2.860;2023-04-03T16:51:01;2.38;;;1.42;;
78844;SDS011;68195;50.854;2.860;2023-04-03T16:53:31;4.20;;;1.90;;
78844;SDS011;68195;50.854;2.860;2023-04-03T16:55:57;4.03;;;2.20;;
78844;SDS011;68195;50.854;2.860;2023-04-03T16:58:23;4.43;;;1.70;;